Briercrest, Canada
Current Conditions -  °F | °C
As of 8:00 PM on Sunday 25 Jan 2015 (Local Time) from CYQR Reporting Station
Broken Clouds Broken Clouds  
Wind Chill: 27°   Ceiling: 14000
Heat Index: 37°   Visibility: 15mi
Dew Point: 32°   Wind: 20mph
Humidity: 81%   Direction: 270°W
Pressure: 29.73"   Gusts: NA
Location:  50.17°N, 105.27°W
Report Text: CYQR 260200Z 27017KT 15SM BKN140 03/00 A2973 RMK AC7 SLP096
Loading
Personal Weather Stations






























Interactive Weather Map New forecast layout! Learn more

10-Day Weather Forecast

Advertisements
Track Severe Weather on mobile